sensor_id;sensor_type;location;lat;lon;timestamp;temperature;humidity
31677;DHT22;18385;51.572;6.578;2023-10-09T00:00:10;17.70;67.00
31677;DHT22;18385;51.572;6.578;2023-10-09T00:02:54;17.70;67.00
31677;DHT22;18385;51.572;6.578;2023-10-09T00:05:20;17.80;67.10
31677;DHT22;18385;51.572;6.578;2023-10-09T00:07:49;17.80;67.10
31677;DHT22;18385;51.572;6.578;2023-10-09T00:10:21;17.90;67.10
31677;DHT22;18385;51.572;6.578;2023-10-09T00:12:47;18.00;67.10
31677;DHT22;18385;51.572;6.578;2023-10-09T00:15:14;18.10;67.00
31677;DHT22;18385;51.572;6.578;2023-10-09T00:17:44;18.10;66.90
31677;DHT22;18385;51.572;6.578;2023-10-09T00:20:13;18.10;66.90
31677;DHT22;18385;51.572;6.578;2023-10-09T00:22:44;18.20;66.90
31677;DHT22;18385;51.572;6.578;2023-10-09T00:25:12;18.20;66.90
31677;DHT22;18385;51.572;6.578;2023-10-09T00:27:42;18.20;66.90
31677;DHT22;18385;51.572;6.578;2023-10-09T00:30:16;18.30;66.90
31677;DHT22;18385;51.572;6.578;2023-10-09T00:32:44;18.30;66.90
31677;DHT22;18385;51.572;6.578;2023-10-09T00:35:27;18.30;66.90
31677;DHT22;18385;51.572;6.578;2023-10-09T00:38:06;18.30;66.80
31677;DHT22;18385;51.572;6.578;2023-10-09T00:40:40;18.30;66.70
31677;DHT22;18385;51.572;6.578;2023-10-09T00:43:13;18.20;66.70
31677;DHT22;18385;51.572;6.578;2023-10-09T00:45:40;18.20;66.90
31677;DHT22;18385;51.572;6.578;2023-10-09T00:48:09;18.20;67.10
31677;DHT22;18385;51.572;6.578;2023-10-09T00:50:35;18.20;67.30
31677;DHT22;18385;51.572;6.578;2023-10-09T00:53:02;18.20;67.30
31677;DHT22;18385;51.572;6.578;2023-10-09T00:55:34;18.20;67.20
31677;DHT22;18385;51.572;6.578;2023-10-09T00:58:21;18.20;67.10
31677;DHT22;18385;51.572;6.578;2023-10-09T01:00:52;18.20;67.20
31677;DHT22;18385;51.572;6.578;2023-10-09T01:03:19;18.20;67.30
31677;DHT22;18385;51.572;6.578;2023-10-09T01:06:04;18.30;67.40
31677;DHT22;18385;51.572;6.578;2023-10-09T01:08:37;18.40;67.40
31677;DHT22;18385;51.572;6.578;2023-10-09T01:11:07;18.40;67.20
31677;DHT22;18385;51.572;6.578;2023-10-09T01:13:40;18.40;67.10
31677;DHT22;18385;51.572;6.578;2023-10-09T01:16:15;18.40;67.10
31677;DHT22;18385;51.572;6.578;2023-10-09T01:18:46;18.30;67.00
31677;DHT22;18385;51.572;6.578;2023-10-09T01:21:19;18.20;67.20
31677;DHT22;18385;51.572;6.578;2023-10-09T01:23:57;18.20;67.30
31677;DHT22;18385;51.572;6.578;2023-10-09T01:26:32;18.20;67.40
31677;DHT22;18385;51.572;6.578;2023-10-09T01:29:23;18.20;67.50
31677;DHT22;18385;51.572;6.578;2023-10-09T01:31:55;18.20;67.60
31677;DHT22;18385;51.572;6.578;2023-10-09T01:34:25;18.30;67.60
31677;DHT22;18385;51.572;6.578;2023-10-09T01:37:13;18.30;67.50
31677;DHT22;18385;51.572;6.578;2023-10-09T01:39:55;18.30;67.40
31677;DHT22;18385;51.572;6.578;2023-10-09T01:42:24;18.30;67.50
31677;DHT22;18385;51.572;6.578;2023-10-09T01:44:55;18.30;67.40
31677;DHT22;18385;51.572;6.578;2023-10-09T01:47:23;18.20;67.40
31677;DHT22;18385;51.572;6.578;2023-10-09T01:49:51;18.20;67.50
31677;DHT22;18385;51.572;6.578;2023-10-09T01:52:19;18.20;67.60
31677;DHT22;18385;51.572;6.578;2023-10-09T01:54:47;18.20;67.70
31677;DHT22;18385;51.572;6.578;2023-10-09T01:57:15;18.20;67.80
31677;DHT22;18385;51.572;6.578;2023-10-09T01:59:45;18.20;67.80
31677;DHT22;18385;51.572;6.578;2023-10-09T02:02:13;18.20;67.80
31677;DHT22;18385;51.572;6.578;2023-10-09T02:05:00;18.30;67.90
31677;DHT22;18385;51.572;6.578;2023-10-09T02:07:41;18.30;67.90
31677;DHT22;18385;51.572;6.578;2023-10-09T02:10:11;18.30;67.80
31677;DHT22;18385;51.572;6.578;2023-10-09T02:13:00;18.40;67.90
31677;DHT22;18385;51.572;6.578;2023-10-09T02:15:32;18.40;67.90
31677;DHT22;18385;51.572;6.578;2023-10-09T02:18:21;18.40;67.80
31677;DHT22;18385;51.572;6.578;2023-10-09T02:23:24;18.50;67.90
31677;DHT22;18385;51.572;6.578;2023-10-09T02:25:57;18.50;67.90
31677;DHT22;18385;51.572;6.578;2023-10-09T02:28:23;18.50;67.80
31677;DHT22;18385;51.572;6.578;2023-10-09T02:30:48;18.60;67.90
31677;DHT22;18385;51.572;6.578;2023-10-09T02:33:15;18.60;67.80
31677;DHT22;18385;51.572;6.578;2023-10-09T02:35:46;18.60;67.80
31677;DHT22;18385;51.572;6.578;2023-10-09T02:38:17;18.60;67.80
31677;DHT22;18385;51.572;6.578;2023-10-09T02:40:43;18.70;67.80
31677;DHT22;18385;51.572;6.578;2023-10-09T02:43:32;18.70;67.80
31677;DHT22;18385;51.572;6.578;2023-10-09T02:46:06;18.70;67.70
31677;DHT22;18385;51.572;6.578;2023-10-09T02:49:04;18.70;67.80
31677;DHT22;18385;51.572;6.578;2023-10-09T02:51:31;18.70;67.80
31677;DHT22;18385;51.572;6.578;2023-10-09T02:54:02;18.70;67.90
31677;DHT22;18385;51.572;6.578;2023-10-09T02:56:50;18.70;67.80
31677;DHT22;18385;51.572;6.578;2023-10-09T02:59:31;18.70;67.90
31677;DHT22;18385;51.572;6.578;2023-10-09T03:01:58;18.80;68.00
31677;DHT22;18385;51.572;6.578;2023-10-09T03:04:28;18.80;68.00
31677;DHT22;18385;51.572;6.578;2023-10-09T03:06:55;18.80;67.90
31677;DHT22;18385;51.572;6.578;2023-10-09T03:09:23;18.80;67.90
31677;DHT22;18385;51.572;6.578;2023-10-09T03:11:54;18.90;67.90
31677;DHT22;18385;51.572;6.578;2023-10-09T03:14:20;18.90;67.80
31677;DHT22;18385;51.572;6.578;2023-10-09T03:16:47;18.90;67.90
31677;DHT22;18385;51.572;6.578;2023-10-09T03:19:15;18.90;67.90
31677;DHT22;18385;51.572;6.578;2023-10-09T03:21:42;18.90;67.90
31677;DHT22;18385;51.572;6.578;2023-10-09T03:24:09;18.80;67.90
31677;DHT22;18385;51.572;6.578;2023-10-09T03:26:37;18.90;67.90
31677;DHT22;18385;51.572;6.578;2023-10-09T03:29:03;18.90;67.90
31677;DHT22;18385;51.572;6.578;2023-10-09T03:31:32;18.90;67.80
31677;DHT22;18385;51.572;6.578;2023-10-09T03:33:59;18.90;68.60
31677;DHT22;18385;51.572;6.578;2023-10-09T03:36:25;18.90;67.90
31677;DHT22;18385;51.572;6.578;2023-10-09T03:38:54;18.90;67.90
31677;DHT22;18385;51.572;6.578;2023-10-09T03:41:23;18.90;67.80
31677;DHT22;18385;51.572;6.578;2023-10-09T03:43:52;18.90;67.80
31677;DHT22;18385;51.572;6.578;2023-10-09T03:46:22;18.90;67.80
31677;DHT22;18385;51.572;6.578;2023-10-09T03:48:58;18.90;67.90
31677;DHT22;18385;51.572;6.578;2023-10-09T03:51:27;18.90;67.90
31677;DHT22;18385;51.572;6.578;2023-10-09T03:53:53;18.90;68.00
31677;DHT22;18385;51.572;6.578;2023-10-09T03:56:19;18.90;68.00
31677;DHT22;18385;51.572;6.578;2023-10-09T03:58:51;18.90;68.00
31677;DHT22;18385;51.572;6.578;2023-10-09T04:01:21;18.90;68.00
31677;DHT22;18385;51.572;6.578;2023-10-09T04:04:04;18.90;68.00
31677;DHT22;18385;51.572;6.578;2023-10-09T04:06:33;18.90;68.00
31677;DHT22;18385;51.572;6.578;2023-10-09T04:09:00;18.90;68.00
31677;DHT22;18385;51.572;6.578;2023-10-09T04:11:39;18.80;68.00
31677;DHT22;18385;51.572;6.578;2023-10-09T04:14:08;18.90;68.10
31677;DHT22;18385;51.572;6.578;2023-10-09T04:16:38;18.90;68.20
31677;DHT22;18385;51.572;6.578;2023-10-09T04:19:16;18.90;68.20
31677;DHT22;18385;51.572;6.578;2023-10-09T04:21:47;18.90;68.90
31677;DHT22;18385;51.572;6.578;2023-10-09T04:24:14;18.90;68.10
31677;DHT22;18385;51.572;6.578;2023-10-09T04:26:44;18.90;68.10
31677;DHT22;18385;51.572;6.578;2023-10-09T04:29:11;18.90;68.00
31677;DHT22;18385;51.572;6.578;2023-10-09T04:31:58;19.00;68.10
31677;DHT22;18385;51.572;6.578;2023-10-09T04:34:27;19.00;68.10
31677;DHT22;18385;51.572;6.578;2023-10-09T04:36:53;19.00;68.00
31677;DHT22;18385;51.572;6.578;2023-10-09T04:39:53;19.00;67.90
31677;DHT22;18385;51.572;6.578;2023-10-09T04:42:38;19.00;68.00
31677;DHT22;18385;51.572;6.578;2023-10-09T04:45:05;19.00;68.00
31677;DHT22;18385;51.572;6.578;2023-10-09T04:47:35;19.00;68.00
31677;DHT22;18385;51.572;6.578;2023-10-09T04:52:33;19.10;67.90
31677;DHT22;18385;51.572;6.578;2023-10-09T04:55:00;19.10;67.90
31677;DHT22;18385;51.572;6.578;2023-10-09T04:57:38;19.10;67.90
31677;DHT22;18385;51.572;6.578;2023-10-09T05:00:08;19.10;67.80
31677;DHT22;18385;51.572;6.578;2023-10-09T05:02:48;19.10;67.90
31677;DHT22;18385;51.572;6.578;2023-10-09T05:05:24;19.10;67.90
31677;DHT22;18385;51.572;6.578;2023-10-09T05:11:01;19.10;67.90
31677;DHT22;18385;51.572;6.578;2023-10-09T05:13:35;19.20;67.90
31677;DHT22;18385;51.572;6.578;2023-10-09T05:16:07;19.20;67.90
31677;DHT22;18385;51.572;6.578;2023-10-09T05:18:40;19.10;67.80
31677;DHT22;18385;51.572;6.578;2023-10-09T05:21:07;19.20;67.80
31677;DHT22;18385;51.572;6.578;2023-10-09T05:23:41;19.20;67.80
31677;DHT22;18385;51.572;6.578;2023-10-09T05:26:17;19.20;67.90
31677;DHT22;18385;51.572;6.578;2023-10-09T05:29:03;19.20;67.90
31677;DHT22;18385;51.572;6.578;2023-10-09T05:31:50;19.20;68.00
31677;DHT22;18385;51.572;6.578;2023-10-09T05:34:22;19.10;67.90
31677;DHT22;18385;51.572;6.578;2023-10-09T05:36:49;19.20;68.00
31677;DHT22;18385;51.572;6.578;2023-10-09T05:39:14;19.20;67.90
31677;DHT22;18385;51.572;6.578;2023-10-09T05:41:47;19.20;67.90
31677;DHT22;18385;51.572;6.578;2023-10-09T05:44:18;19.30;67.80
31677;DHT22;18385;51.572;6.578;2023-10-09T05:47:02;19.20;67.80
31677;DHT22;18385;51.572;6.578;2023-10-09T05:49:46;19.20;67.80
31677;DHT22;18385;51.572;6.578;2023-10-09T05:52:20;19.20;67.90
31677;DHT22;18385;51.572;6.578;2023-10-09T05:54:59;19.20;67.90
31677;DHT22;18385;51.572;6.578;2023-10-09T05:57:43;19.20;67.90
31677;DHT22;18385;51.572;6.578;2023-10-09T06:00:21;19.20;67.90
31677;DHT22;18385;51.572;6.578;2023-10-09T06:03:06;19.30;67.90
31677;DHT22;18385;51.572;6.578;2023-10-09T06:05:48;19.30;67.90
31677;DHT22;18385;51.572;6.578;2023-10-09T06:08:18;19.30;67.80
31677;DHT22;18385;51.572;6.578;2023-10-09T06:10:51;19.40;67.80
31677;DHT22;18385;51.572;6.578;2023-10-09T06:13:32;19.40;67.80
31677;DHT22;18385;51.572;6.578;2023-10-09T06:16:06;19.40;67.70
31677;DHT22;18385;51.572;6.578;2023-10-09T06:18:45;19.40;67.60
31677;DHT22;18385;51.572;6.578;2023-10-09T06:21:20;19.40;67.60
31677;DHT22;18385;51.572;6.578;2023-10-09T06:24:04;19.50;67.70
31677;DHT22;18385;51.572;6.578;2023-10-09T06:26:39;19.50;67.70
31677;DHT22;18385;51.572;6.578;2023-10-09T06:29:17;19.50;67.60
31677;DHT22;18385;51.572;6.578;2023-10-09T06:31:59;19.50;67.60
31677;DHT22;18385;51.572;6.578;2023-10-09T06:34:43;19.50;67.60
31677;DHT22;18385;51.572;6.578;2023-10-09T06:37:10;19.50;67.60
31677;DHT22;18385;51.572;6.578;2023-10-09T06:39:48;19.50;68.30
31677;DHT22;18385;51.572;6.578;2023-10-09T06:42:27;19.50;67.50
31677;DHT22;18385;51.572;6.578;2023-10-09T06:45:03;19.50;67.70
31677;DHT22;18385;51.572;6.578;2023-10-09T06:47:33;19.60;67.70
31677;DHT22;18385;51.572;6.578;2023-10-09T06:50:11;19.60;67.70
31677;DHT22;18385;51.572;6.578;2023-10-09T06:52:48;19.60;67.70
31677;DHT22;18385;51.572;6.578;2023-10-09T06:55:24;19.70;67.70
31677;DHT22;18385;51.572;6.578;2023-10-09T06:58:02;19.70;67.60
31677;DHT22;18385;51.572;6.578;2023-10-09T07:00:38;19.70;68.30
31677;DHT22;18385;51.572;6.578;2023-10-09T07:03:22;19.80;67.60
31677;DHT22;18385;51.572;6.578;2023-10-09T07:06:11;19.80;67.60
31677;DHT22;18385;51.572;6.578;2023-10-09T07:08:56;19.80;67.30
31677;DHT22;18385;51.572;6.578;2023-10-09T07:11:49;19.80;67.40
31677;DHT22;18385;51.572;6.578;2023-10-09T07:14:17;19.90;68.30
31677;DHT22;18385;51.572;6.578;2023-10-09T07:17:18;19.90;67.40
31677;DHT22;18385;51.572;6.578;2023-10-09T07:19:59;19.90;67.30
31677;DHT22;18385;51.572;6.578;2023-10-09T07:22:43;20.00;67.40
31677;DHT22;18385;51.572;6.578;2023-10-09T07:25:19;19.90;67.40
31677;DHT22;18385;51.572;6.578;2023-10-09T07:28:04;20.00;67.50
31677;DHT22;18385;51.572;6.578;2023-10-09T07:30:46;20.00;67.40
31677;DHT22;18385;51.572;6.578;2023-10-09T07:33:13;20.10;67.20
31677;DHT22;18385;51.572;6.578;2023-10-09T07:35:47;20.10;67.90
31677;DHT22;18385;51.572;6.578;2023-10-09T07:38:21;20.00;67.20
31677;DHT22;18385;51.572;6.578;2023-10-09T07:41:01;20.10;67.20
31677;DHT22;18385;51.572;6.578;2023-10-09T07:43:35;20.20;67.20
31677;DHT22;18385;51.572;6.578;2023-10-09T07:46:08;20.20;67.00
31677;DHT22;18385;51.572;6.578;2023-10-09T07:48:53;20.20;67.00
31677;DHT22;18385;51.572;6.578;2023-10-09T07:51:24;20.20;67.20
31677;DHT22;18385;51.572;6.578;2023-10-09T07:53:57;20.20;67.10
31677;DHT22;18385;51.572;6.578;2023-10-09T07:56:25;20.20;67.10
31677;DHT22;18385;51.572;6.578;2023-10-09T07:58:56;20.20;67.00
31677;DHT22;18385;51.572;6.578;2023-10-09T08:01:26;20.30;67.00
31677;DHT22;18385;51.572;6.578;2023-10-09T08:03:54;20.30;67.00
31677;DHT22;18385;51.572;6.578;2023-10-09T08:06:27;20.30;66.90
31677;DHT22;18385;51.572;6.578;2023-10-09T08:09:13;20.30;66.90
31677;DHT22;18385;51.572;6.578;2023-10-09T08:11:45;20.30;67.10
31677;DHT22;18385;51.572;6.578;2023-10-09T08:14:14;20.40;67.00
31677;DHT22;18385;51.572;6.578;2023-10-09T08:16:47;20.40;67.00
31677;DHT22;18385;51.572;6.578;2023-10-09T08:19:12;20.40;67.00
31677;DHT22;18385;51.572;6.578;2023-10-09T08:21:57;20.50;66.90
31677;DHT22;18385;51.572;6.578;2023-10-09T08:24:41;20.60;66.90
31677;DHT22;18385;51.572;6.578;2023-10-09T08:27:08;20.60;66.70
31677;DHT22;18385;51.572;6.578;2023-10-09T08:29:53;20.60;66.60
31677;DHT22;18385;51.572;6.578;2023-10-09T08:32:38;20.70;66.70
31677;DHT22;18385;51.572;6.578;2023-10-09T08:35:05;20.70;66.60
31677;DHT22;18385;51.572;6.578;2023-10-09T08:37:45;20.80;66.60
31677;DHT22;18385;51.572;6.578;2023-10-09T08:40:14;20.80;66.50
31677;DHT22;18385;51.572;6.578;2023-10-09T08:42:49;20.80;66.40
31677;DHT22;18385;51.572;6.578;2023-10-09T08:45:22;20.80;66.40
31677;DHT22;18385;51.572;6.578;2023-10-09T08:47:56;20.90;66.60
31677;DHT22;18385;51.572;6.578;2023-10-09T08:50:22;21.10;66.70
31677;DHT22;18385;51.572;6.578;2023-10-09T08:52:49;21.10;66.40
31677;DHT22;18385;51.572;6.578;2023-10-09T08:55:15;21.10;66.30
31677;DHT22;18385;51.572;6.578;2023-10-09T08:57:47;21.20;66.30
31677;DHT22;18385;51.572;6.578;2023-10-09T09:00:17;21.40;66.40
31677;DHT22;18385;51.572;6.578;2023-10-09T09:02:47;21.40;66.30
31677;DHT22;18385;51.572;6.578;2023-10-09T09:05:17;21.50;66.20
31677;DHT22;18385;51.572;6.578;2023-10-09T09:07:44;21.50;65.80
31677;DHT22;18385;51.572;6.578;2023-10-09T09:10:10;21.60;65.80
31677;DHT22;18385;51.572;6.578;2023-10-09T09:12:50;21.70;65.90
31677;DHT22;18385;51.572;6.578;2023-10-09T09:15:35;21.90;65.80
31677;DHT22;18385;51.572;6.578;2023-10-09T09:18:06;22.00;65.60
31677;DHT22;18385;51.572;6.578;2023-10-09T09:20:36;22.00;65.40
31677;DHT22;18385;51.572;6.578;2023-10-09T09:23:11;22.10;65.50
31677;DHT22;18385;51.572;6.578;2023-10-09T09:25:46;22.20;65.40
31677;DHT22;18385;51.572;6.578;2023-10-09T09:28:25;22.20;65.20
31677;DHT22;18385;51.572;6.578;2023-10-09T09:30:52;22.20;65.20
31677;DHT22;18385;51.572;6.578;2023-10-09T09:33:27;22.30;65.00
31677;DHT22;18385;51.572;6.578;2023-10-09T09:36:00;22.40;65.00
31677;DHT22;18385;51.572;6.578;2023-10-09T09:38:34;22.50;64.50
31677;DHT22;18385;51.572;6.578;2023-10-09T09:41:08;22.50;64.50
31677;DHT22;18385;51.572;6.578;2023-10-09T09:43:36;22.70;64.50
31677;DHT22;18385;51.572;6.578;2023-10-09T09:46:07;22.80;64.40
31677;DHT22;18385;51.572;6.578;2023-10-09T09:48:40;22.90;64.10
31677;DHT22;18385;51.572;6.578;2023-10-09T09:51:12;22.80;63.60
31677;DHT22;18385;51.572;6.578;2023-10-09T09:53:39;23.00;64.10
31677;DHT22;18385;51.572;6.578;2023-10-09T09:56:06;23.00;63.70
31677;DHT22;18385;51.572;6.578;2023-10-09T09:58:34;23.00;63.60
31677;DHT22;18385;51.572;6.578;2023-10-09T10:01:09;23.00;63.40
31677;DHT22;18385;51.572;6.578;2023-10-09T10:04:01;23.00;63.50
31677;DHT22;18385;51.572;6.578;2023-10-09T10:06:30;23.10;63.40
31677;DHT22;18385;51.572;6.578;2023-10-09T10:08:58;23.10;63.50
31677;DHT22;18385;51.572;6.578;2023-10-09T10:11:46;23.00;63.10
31677;DHT22;18385;51.572;6.578;2023-10-09T10:14:17;22.90;63.00
31677;DHT22;18385;51.572;6.578;2023-10-09T10:17:14;22.80;63.30
31677;DHT22;18385;51.572;6.578;2023-10-09T10:20:04;22.90;63.30
31677;DHT22;18385;51.572;6.578;2023-10-09T10:22:51;23.00;63.30
31677;DHT22;18385;51.572;6.578;2023-10-09T10:28:22;23.00;63.10
31677;DHT22;18385;51.572;6.578;2023-10-09T10:30:55;23.00;62.90
31677;DHT22;18385;51.572;6.578;2023-10-09T10:33:21;23.00;63.20
31677;DHT22;18385;51.572;6.578;2023-10-09T10:35:48;23.10;63.10
31677;DHT22;18385;51.572;6.578;2023-10-09T10:38:24;23.10;62.90
31677;DHT22;18385;51.572;6.578;2023-10-09T10:40:50;23.20;62.80
31677;DHT22;18385;51.572;6.578;2023-10-09T10:43:26;23.30;62.70
31677;DHT22;18385;51.572;6.578;2023-10-09T10:46:07;23.30;62.60
31677;DHT22;18385;51.572;6.578;2023-10-09T10:48:39;23.40;62.30
31677;DHT22;18385;51.572;6.578;2023-10-09T10:51:06;23.50;62.50
31677;DHT22;18385;51.572;6.578;2023-10-09T10:53:32;23.60;62.00
31677;DHT22;18385;51.572;6.578;2023-10-09T10:56:13;23.60;61.70
31677;DHT22;18385;51.572;6.578;2023-10-09T10:58:43;23.60;61.80
31677;DHT22;18385;51.572;6.578;2023-10-09T11:01:37;23.70;61.80
31677;DHT22;18385;51.572;6.578;2023-10-09T11:04:20;23.70;61.50
31677;DHT22;18385;51.572;6.578;2023-10-09T11:06:58;23.70;61.10
31677;DHT22;18385;51.572;6.578;2023-10-09T11:10:03;23.60;61.40
31677;DHT22;18385;51.572;6.578;2023-10-09T11:12:30;23.70;61.70
31677;DHT22;18385;51.572;6.578;2023-10-09T11:15:35;23.70;61.40
31677;DHT22;18385;51.572;6.578;2023-10-09T11:18:14;23.80;61.40
31677;DHT22;18385;51.572;6.578;2023-10-09T11:20:51;23.80;61.00
31677;DHT22;18385;51.572;6.578;2023-10-09T11:23:32;23.90;61.20
31677;DHT22;18385;51.572;6.578;2023-10-09T11:26:03;24.00;61.00
31677;DHT22;18385;51.572;6.578;2023-10-09T11:29:05;24.00;60.70
31677;DHT22;18385;51.572;6.578;2023-10-09T11:31:42;24.10;61.00
31677;DHT22;18385;51.572;6.578;2023-10-09T11:34:20;24.20;60.60
31677;DHT22;18385;51.572;6.578;2023-10-09T11:37:24;24.30;60.40
31677;DHT22;18385;51.572;6.578;2023-10-09T11:39:59;24.40;60.10
31677;DHT22;18385;51.572;6.578;2023-10-09T11:42:29;24.50;60.20
31677;DHT22;18385;51.572;6.578;2023-10-09T11:45:08;24.70;60.00
31677;DHT22;18385;51.572;6.578;2023-10-09T11:47:51;24.60;59.50
31677;DHT22;18385;51.572;6.578;2023-10-09T11:50:44;24.60;59.80
31677;DHT22;18385;51.572;6.578;2023-10-09T11:53:22;24.60;59.60
31677;DHT22;18385;51.572;6.578;2023-10-09T11:55:49;24.60;60.00
31677;DHT22;18385;51.572;6.578;2023-10-09T11:58:18;24.80;59.70
31677;DHT22;18385;51.572;6.578;2023-10-09T12:00:53;24.80;59.40
31677;DHT22;18385;51.572;6.578;2023-10-09T12:03:26;24.90;59.40
31677;DHT22;18385;51.572;6.578;2023-10-09T12:06:02;24.90;58.90
31677;DHT22;18385;51.572;6.578;2023-10-09T12:08:31;24.80;58.80
31677;DHT22;18385;51.572;6.578;2023-10-09T12:10:58;24.70;59.10
31677;DHT22;18385;51.572;6.578;2023-10-09T12:13:24;24.70;59.20
31677;DHT22;18385;51.572;6.578;2023-10-09T12:15:51;24.80;59.00
31677;DHT22;18385;51.572;6.578;2023-10-09T12:18:23;24.80;59.00
31677;DHT22;18385;51.572;6.578;2023-10-09T12:20:50;24.80;58.80
31677;DHT22;18385;51.572;6.578;2023-10-09T12:23:21;25.00;58.90
31677;DHT22;18385;51.572;6.578;2023-10-09T12:25:50;25.00;58.60
31677;DHT22;18385;51.572;6.578;2023-10-09T12:28:16;24.90;58.20
31677;DHT22;18385;51.572;6.578;2023-10-09T12:30:47;24.80;58.50
31677;DHT22;18385;51.572;6.578;2023-10-09T12:33:20;24.80;58.50
31677;DHT22;18385;51.572;6.578;2023-10-09T12:35:54;24.80;58.40
31677;DHT22;18385;51.572;6.578;2023-10-09T12:38:29;24.80;58.30
31677;DHT22;18385;51.572;6.578;2023-10-09T12:41:05;24.80;58.20
31677;DHT22;18385;51.572;6.578;2023-10-09T12:43:42;24.70;58.20
31677;DHT22;18385;51.572;6.578;2023-10-09T12:46:08;24.70;58.20
31677;DHT22;18385;51.572;6.578;2023-10-09T12:48:34;24.70;58.30
31677;DHT22;18385;51.572;6.578;2023-10-09T12:51:01;24.80;58.30
31677;DHT22;18385;51.572;6.578;2023-10-09T12:53:32;24.90;58.20
31677;DHT22;18385;51.572;6.578;2023-10-09T12:55:59;25.00;57.80
31677;DHT22;18385;51.572;6.578;2023-10-09T12:58:25;25.00;57.70
31677;DHT22;18385;51.572;6.578;2023-10-09T13:00:52;25.10;57.90
31677;DHT22;18385;51.572;6.578;2023-10-09T13:03:18;25.20;57.60
31677;DHT22;18385;51.572;6.578;2023-10-09T13:05:50;25.30;57.40
31677;DHT22;18385;51.572;6.578;2023-10-09T13:08:28;25.30;57.40
31677;DHT22;18385;51.572;6.578;2023-10-09T13:10:57;25.30;57.10
31677;DHT22;18385;51.572;6.578;2023-10-09T13:13:33;25.30;57.20
31677;DHT22;18385;51.572;6.578;2023-10-09T13:16:12;25.30;57.30
31677;DHT22;18385;51.572;6.578;2023-10-09T13:18:41;25.50;57.10
31677;DHT22;18385;51.572;6.578;2023-10-09T13:21:07;25.60;57.10
31677;DHT22;18385;51.572;6.578;2023-10-09T13:23:33;25.60;56.70
31677;DHT22;18385;51.572;6.578;2023-10-09T13:26:08;25.50;56.60
31677;DHT22;18385;51.572;6.578;2023-10-09T13:28:50;25.30;56.50
31677;DHT22;18385;51.572;6.578;2023-10-09T13:31:17;25.30;56.90
31677;DHT22;18385;51.572;6.578;2023-10-09T13:33:44;25.30;56.80
31677;DHT22;18385;51.572;6.578;2023-10-09T13:36:10;25.40;57.00
31677;DHT22;18385;51.572;6.578;2023-10-09T13:38:45;25.50;56.80
31677;DHT22;18385;51.572;6.578;2023-10-09T13:41:11;25.40;56.60
31677;DHT22;18385;51.572;6.578;2023-10-09T13:43:43;25.30;57.20
31677;DHT22;18385;51.572;6.578;2023-10-09T13:46:13;25.20;56.60
31677;DHT22;18385;51.572;6.578;2023-10-09T13:48:41;25.10;56.60
31677;DHT22;18385;51.572;6.578;2023-10-09T13:51:11;25.20;56.80
31677;DHT22;18385;51.572;6.578;2023-10-09T13:53:44;25.10;56.80
31677;DHT22;18385;51.572;6.578;2023-10-09T13:56:20;25.20;56.60
31677;DHT22;18385;51.572;6.578;2023-10-09T13:58:47;25.30;56.60
31677;DHT22;18385;51.572;6.578;2023-10-09T14:01:13;25.40;56.90
31677;DHT22;18385;51.572;6.578;2023-10-09T14:03:56;25.40;56.40
31677;DHT22;18385;51.572;6.578;2023-10-09T14:06:23;25.30;56.30
31677;DHT22;18385;51.572;6.578;2023-10-09T14:08:59;25.20;56.30
31677;DHT22;18385;51.572;6.578;2023-10-09T14:11:27;25.30;56.60
31677;DHT22;18385;51.572;6.578;2023-10-09T14:13:53;25.30;56.40
31677;DHT22;18385;51.572;6.578;2023-10-09T14:16:19;25.30;56.20
31677;DHT22;18385;51.572;6.578;2023-10-09T14:18:56;25.20;56.20
31677;DHT22;18385;51.572;6.578;2023-10-09T14:21:27;25.30;56.40
31677;DHT22;18385;51.572;6.578;2023-10-09T14:23:59;25.40;56.60
31677;DHT22;18385;51.572;6.578;2023-10-09T14:26:26;25.50;56.30
31677;DHT22;18385;51.572;6.578;2023-10-09T14:28:53;25.50;56.00
31677;DHT22;18385;51.572;6.578;2023-10-09T14:31:19;25.30;55.90
31677;DHT22;18385;51.572;6.578;2023-10-09T14:33:55;25.20;56.00
31677;DHT22;18385;51.572;6.578;2023-10-09T14:36:22;25.10;56.00
31677;DHT22;18385;51.572;6.578;2023-10-09T14:38:49;25.00;56.30
31677;DHT22;18385;51.572;6.578;2023-10-09T14:41:19;24.90;56.40
31677;DHT22;18385;51.572;6.578;2023-10-09T14:43:47;24.90;56.50
31677;DHT22;18385;51.572;6.578;2023-10-09T14:46:14;24.90;56.60
31677;DHT22;18385;51.572;6.578;2023-10-09T14:48:40;24.90;56.40
31677;DHT22;18385;51.572;6.578;2023-10-09T14:51:06;24.80;56.40
31677;DHT22;18385;51.572;6.578;2023-10-09T14:53:33;24.80;56.40
31677;DHT22;18385;51.572;6.578;2023-10-09T14:56:00;24.80;56.50
31677;DHT22;18385;51.572;6.578;2023-10-09T14:58:27;24.80;56.50
31677;DHT22;18385;51.572;6.578;2023-10-09T15:00:55;24.80;56.50
31677;DHT22;18385;51.572;6.578;2023-10-09T15:03:21;24.90;56.40
31677;DHT22;18385;51.572;6.578;2023-10-09T15:05:47;24.90;56.50
31677;DHT22;18385;51.572;6.578;2023-10-09T15:08:13;24.90;56.40
31677;DHT22;18385;51.572;6.578;2023-10-09T15:10:51;24.80;56.40
31677;DHT22;18385;51.572;6.578;2023-10-09T15:13:21;24.90;57.10
31677;DHT22;18385;51.572;6.578;2023-10-09T15:15:54;24.80;56.60
31677;DHT22;18385;51.572;6.578;2023-10-09T15:18:21;24.90;56.60
31677;DHT22;18385;51.572;6.578;2023-10-09T15:20:48;24.90;56.50
31677;DHT22;18385;51.572;6.578;2023-10-09T15:23:14;24.80;56.40
31677;DHT22;18385;51.572;6.578;2023-10-09T15:25:40;24.90;56.60
31677;DHT22;18385;51.572;6.578;2023-10-09T15:28:10;24.90;56.60
31677;DHT22;18385;51.572;6.578;2023-10-09T15:30:38;25.00;56.50
31677;DHT22;18385;51.572;6.578;2023-10-09T15:33:07;24.90;56.40
31677;DHT22;18385;51.572;6.578;2023-10-09T15:35:34;24.90;56.60
31677;DHT22;18385;51.572;6.578;2023-10-09T15:38:03;24.80;56.50
31677;DHT22;18385;51.572;6.578;2023-10-09T15:40:33;24.70;56.50
31677;DHT22;18385;51.572;6.578;2023-10-09T15:43:03;24.70;56.90
31677;DHT22;18385;51.572;6.578;2023-10-09T15:45:30;24.80;56.90
31677;DHT22;18385;51.572;6.578;2023-10-09T15:47:57;24.80;56.70
31677;DHT22;18385;51.572;6.578;2023-10-09T15:50:24;24.80;56.70
31677;DHT22;18385;51.572;6.578;2023-10-09T15:52:54;24.80;56.60
31677;DHT22;18385;51.572;6.578;2023-10-09T15:55:28;24.70;56.70
31677;DHT22;18385;51.572;6.578;2023-10-09T15:58:00;24.60;56.70
31677;DHT22;18385;51.572;6.578;2023-10-09T16:00:26;24.50;56.80
31677;DHT22;18385;51.572;6.578;2023-10-09T16:02:55;24.40;57.00
31677;DHT22;18385;51.572;6.578;2023-10-09T16:05:26;24.30;57.10
31677;DHT22;18385;51.572;6.578;2023-10-09T16:07:57;24.30;57.10
31677;DHT22;18385;51.572;6.578;2023-10-09T16:10:23;24.20;57.20
31677;DHT22;18385;51.572;6.578;2023-10-09T16:12:50;24.20;57.30
31677;DHT22;18385;51.572;6.578;2023-10-09T16:15:19;24.20;57.40
31677;DHT22;18385;51.572;6.578;2023-10-09T16:17:49;24.20;57.40